Manakin Sabot, Virginia
Current Conditions -  °F | °C
As of 1:54 AM on Wednesday 22 Oct 2014 (Local Time) from KOFP Reporting Station
Few Clouds Few Clouds  
Wind Chill: 11°   Ceiling: Unl
Heat Index: 11°   Visibility: 10mi
Dew Point:   Wind: 7mph
Humidity: 89%   Direction: 320°NW
Pressure: 29.89"   Gusts: NA
Location:  37.65°N, 77.72°W
Report Text: KOFP 220554Z AUTO 32006KT 10SM FEW055 11/09 A2989 RMK AO2 SLP120 T01110094 10144 20111 56016
Loading
Personal Weather Stations






























Interactive Weather Map
Tropical Storm Tracking
New forecast layout! Learn more

10-Day Weather Forecast

Advertisements
Track Severe Weather on mobile